Time;durP1;ratioP1;P1;durP2;ratioP2;P2;SDS_P1;SDS_P2;PMS_P1;PMS_P2;Temp;Humidity;BMP_temperature;BMP_pressure;BME280_temperature;BME280_humidity;BME280_pressure;Samples;Min_cycle;Max_cycle;Signal;HPM_P1;HPM_P2
2022/03/02 00:00:18;;;;;;;30.90;17.63;;;5.40;99.90;;;;;;5067887;28;20044;-58
2022/03/02 00:02:43;;;;;;;26.63;17.05;;;5.40;99.90;;;;;;5068007;28;20040;-57
2022/03/02 00:05:09;;;;;;;32.13;17.13;;;5.40;99.90;;;;;;5049905;28;20064;-56
2022/03/02 00:07:35;;;;;;;31.00;18.13;;;5.40;99.90;;;;;;5068139;28;20406;-59
2022/03/02 00:10:02;;;;;;;28.08;17.38;;;5.40;99.90;;;;;;5068461;28;20457;-59
2022/03/02 00:12:27;;;;;;;33.08;18.83;;;5.40;99.90;;;;;;5058299;28;20091;-59
2022/03/02 00:14:53;;;;;;;31.00;17.33;;;5.40;99.90;;;;;;5046364;28;20472;-59
2022/03/02 00:17:19;;;;;;;30.33;17.52;;;5.40;99.90;;;;;;5047869;28;20415;-57
2022/03/02 00:19:44;;;;;;;36.85;18.73;;;5.40;99.90;;;;;;5048044;28;20041;-59
2022/03/02 00:22:11;;;;;;;35.72;18.20;;;5.30;99.90;;;;;;5062865;28;20476;-56
2022/03/02 00:24:37;;;;;;;28.50;17.48;;;5.30;99.90;;;;;;5067533;28;20713;-57
2022/03/02 00:27:03;;;;;;;29.73;16.63;;;5.30;99.90;;;;;;5067692;28;20037;-58
2022/03/02 00:29:29;;;;;;;27.17;18.08;;;5.60;99.90;;;;;;5066534;28;20044;-59
2022/03/02 00:31:54;;;;;;;37.63;20.00;;;5.30;99.90;;;;;;5066751;28;20465;-56
2022/03/02 00:34:21;;;;;;;30.83;18.10;;;5.30;99.90;;;;;;5067541;28;20518;-56
2022/03/02 00:36:46;;;;;;;28.75;17.50;;;5.60;99.90;;;;;;5066276;28;20136;-58
2022/03/02 00:39:12;;;;;;;30.45;17.73;;;5.30;99.90;;;;;;5067579;28;20036;-56
2022/03/02 00:41:38;;;;;;;30.45;18.00;;;5.30;99.90;;;;;;5067003;28;20131;-56
2022/03/02 00:44:04;;;;;;;35.03;19.13;;;5.20;99.90;;;;;;5065677;28;20055;-58
2022/03/02 00:46:31;;;;;;;33.55;18.73;;;5.30;99.90;;;;;;5067171;28;20055;-56
2022/03/02 00:49:00;;;;;;;33.97;20.10;;;5.30;99.90;;;;;;5067894;28;20090;-57
2022/03/02 00:51:27;;;;;;;30.48;18.25;;;5.30;99.90;;;;;;5058650;28;20091;-57
2022/03/02 00:53:53;;;;;;;34.60;17.88;;;5.30;99.90;;;;;;5047699;28;20266;-61
2022/03/02 00:56:20;;;;;;;31.88;19.00;;;5.20;99.90;;;;;;5046305;28;20098;-56
2022/03/02 00:58:47;;;;;;;37.78;20.15;;;5.20;99.90;;;;;;5061583;28;20084;-58
2022/03/02 01:01:12;;;;;;;38.30;20.75;;;5.20;99.90;;;;;;5066379;28;20098;-56
2022/03/02 01:03:38;;;;;;;33.38;20.02;;;5.20;99.90;;;;;;5067563;28;20036;-58
2022/03/02 01:06:05;;;;;;;37.13;20.42;;;5.20;99.90;;;;;;5067278;28;20060;-59
2022/03/02 01:08:34;;;;;;;35.45;17.90;;;5.20;99.90;;;;;;5067123;28;20225;-56
2022/03/02 01:11:00;;;;;;;37.83;20.08;;;5.20;99.90;;;;;;5067207;28;20036;-56
2022/03/02 01:13:26;;;;;;;33.35;20.10;;;5.20;99.90;;;;;;5050043;28;20502;-68
2022/03/02 01:15:51;;;;;;;39.00;21.63;;;5.20;99.90;;;;;;5047265;28;20442;-63
2022/03/02 01:18:17;;;;;;;34.78;19.52;;;5.20;99.90;;;;;;5046929;28;20048;-60
2022/03/02 01:20:44;;;;;;;34.15;19.63;;;5.10;99.90;;;;;;5051442;28;20043;-65
2022/03/02 01:23:09;;;;;;;34.80;19.10;;;5.10;99.90;;;;;;5067610;28;20368;-68
2022/03/02 01:25:35;;;;;;;41.20;20.05;;;5.10;99.90;;;;;;5066888;28;20044;-67
2022/03/02 01:28:01;;;;;;;36.45;22.08;;;5.10;99.90;;;;;;5066470;28;20545;-56
2022/03/02 01:30:27;;;;;;;32.15;18.58;;;5.10;99.90;;;;;;5066686;28;20134;-64
2022/03/02 01:32:53;;;;;;;34.60;19.35;;;5.10;99.90;;;;;;5066760;28;20123;-57
2022/03/02 01:35:19;;;;;;;35.50;21.75;;;5.00;99.90;;;;;;5067061;28;20044;-56
2022/03/02 01:37:45;;;;;;;35.83;18.98;;;5.10;99.90;;;;;;5066425;28;20048;-61
2022/03/02 01:40:11;;;;;;;33.22;19.33;;;5.00;99.90;;;;;;5063951;28;20052;-56
2022/03/02 01:42:38;;;;;;;39.58;20.73;;;5.10;99.90;;;;;;5063977;28;20076;-57
2022/03/02 01:45:05;;;;;;;33.58;19.70;;;5.00;99.90;;;;;;5066708;28;20083;-56
2022/03/02 01:47:31;;;;;;;36.03;20.60;;;5.00;99.90;;;;;;5066609;28;20101;-58
2022/03/02 01:49:56;;;;;;;39.40;21.27;;;4.40;99.90;;;;;;5066403;28;20513;-56
2022/03/02 01:52:22;;;;;;;39.90;22.33;;;5.00;99.90;;;;;;5048743;28;20130;-57
2022/03/02 01:54:48;;;;;;;42.58;21.58;;;5.00;99.90;;;;;;5046059;28;20041;-56
2022/03/02 01:57:14;;;;;;;36.95;20.60;;;5.00;99.90;;;;;;5046807;28;20057;-56
2022/03/02 01:59:40;;;;;;;35.55;21.35;;;5.00;99.90;;;;;;5066363;28;20063;-56
2022/03/02 02:02:06;;;;;;;38.75;22.00;;;5.00;99.90;;;;;;5065670;28;20064;-56
2022/03/02 02:04:32;;;;;;;37.33;20.83;;;5.00;99.90;;;;;;5065769;28;20229;-56
2022/03/02 02:06:58;;;;;;;36.78;22.02;;;5.00;99.90;;;;;;5056183;28;20037;-61
2022/03/02 02:09:24;;;;;;;32.60;20.60;;;4.90;99.90;;;;;;5047673;28;20110;-65
2022/03/02 02:11:49;;;;;;;36.10;21.65;;;4.90;99.90;;;;;;5057805;28;20394;-56
2022/03/02 02:14:15;;;;;;;33.67;19.80;;;4.90;99.90;;;;;;5050080;28;20128;-56
2022/03/02 02:16:41;;;;;;;34.67;20.65;;;4.90;99.90;;;;;;5049102;28;20045;-56
2022/03/02 02:19:07;;;;;;;42.45;22.23;;;4.90;99.90;;;;;;5050453;28;20056;-56
2022/03/02 02:21:33;;;;;;;37.50;20.98;;;4.90;99.90;;;;;;5059043;28;20048;-59
2022/03/02 02:23:58;;;;;;;35.53;20.23;;;4.90;99.90;;;;;;5068535;28;20049;-58
2022/03/02 02:26:25;;;;;;;36.53;22.63;;;4.90;99.90;;;;;;5068453;28;20056;-56
2022/03/02 02:28:51;;;;;;;36.60;20.65;;;4.80;99.90;;;;;;5049946;28;20072;-55
2022/03/02 02:31:18;;;;;;;41.47;23.13;;;5.30;99.90;;;;;;5049420;28;20056;-56
2022/03/02 02:33:44;;;;;;;41.70;23.77;;;4.80;99.90;;;;;;5067270;28;20132;-56
2022/03/02 02:36:10;;;;;;;43.80;23.27;;;4.80;99.90;;;;;;5068696;28;20134;-56
2022/03/02 02:38:35;;;;;;;41.95;23.77;;;4.80;99.90;;;;;;5069730;28;20787;-56
2022/03/02 02:41:01;;;;;;;39.13;21.33;;;4.70;99.90;;;;;;5069287;28;20041;-57
2022/03/02 02:43:27;;;;;;;39.33;22.95;;;4.70;99.90;;;;;;5068638;28;20063;-56
2022/03/02 02:45:53;;;;;;;41.60;22.52;;;4.70;99.90;;;;;;5069570;28;20043;-57
2022/03/02 02:48:20;;;;;;;36.80;22.10;;;4.60;99.90;;;;;;5069461;28;20055;-56
2022/03/02 02:50:46;;;;;;;40.53;23.92;;;4.60;99.90;;;;;;5067434;28;20509;-56
2022/03/02 02:53:12;;;;;;;38.50;22.95;;;4.50;99.90;;;;;;5049867;28;20045;-56
2022/03/02 02:55:39;;;;;;;38.10;21.73;;;4.50;99.90;;;;;;5049572;28;20049;-56
2022/03/02 02:58:06;;;;;;;41.47;22.27;;;4.70;99.90;;;;;;5056134;28;20059;-56
2022/03/02 03:00:35;;;;;;;41.45;22.08;;;4.30;99.90;;;;;;5067362;28;20060;-57
2022/03/02 03:03:01;;;;;;;39.38;23.10;;;4.30;99.90;;;;;;5069521;28;20068;-57
2022/03/02 03:05:29;;;;;;;39.35;22.38;;;4.20;99.90;;;;;;5069438;28;20040;-57
2022/03/02 03:07:56;;;;;;;39.33;23.25;;;4.10;99.90;;;;;;5069227;28;20079;-57
2022/03/02 03:10:23;;;;;;;37.15;21.27;;;4.00;99.90;;;;;;5068053;28;20439;-57
2022/03/02 03:12:49;;;;;;;35.47;20.98;;;3.90;99.90;;;;;;5057042;28;20049;-58
2022/03/02 03:15:17;;;;;;;42.28;22.05;;;3.80;99.90;;;;;;5049132;28;20045;-61
2022/03/02 03:17:43;;;;;;;37.50;20.40;;;3.80;99.90;;;;;;5049574;28;20099;-60
2022/03/02 03:20:11;;;;;;;39.67;20.88;;;3.60;99.90;;;;;;5051086;28;20082;-56
2022/03/02 03:22:37;;;;;;;40.65;21.38;;;3.60;99.90;;;;;;5068547;28;20071;-56
2022/03/02 03:25:05;;;;;;;42.45;24.00;;;3.50;99.90;;;;;;5068759;28;20574;-56
2022/03/02 03:27:30;;;;;;;40.30;22.85;;;3.40;99.90;;;;;;5067128;28;20052;-56
2022/03/02 03:29:56;;;;;;;42.05;21.83;;;3.40;99.90;;;;;;5069170;28;20041;-56
2022/03/02 03:32:22;;;;;;;42.17;22.65;;;3.80;99.90;;;;;;5067648;28;20055;-56
2022/03/02 03:34:48;;;;;;;40.88;23.85;;;3.30;99.90;;;;;;5068697;28;20080;-57
2022/03/02 03:37:14;;;;;;;39.03;23.63;;;3.20;99.90;;;;;;5069032;28;20056;-56
2022/03/02 03:39:42;;;;;;;38.30;21.52;;;3.20;99.90;;;;;;5068753;28;20044;-56
2022/03/02 03:42:08;;;;;;;41.42;22.25;;;3.20;99.90;;;;;;5068493;28;20140;-56
2022/03/02 03:44:33;;;;;;;43.85;23.42;;;3.10;99.90;;;;;;5068508;28;20119;-56
2022/03/02 03:46:59;;;;;;;39.90;22.08;;;3.10;99.90;;;;;;5069205;28;20079;-57
2022/03/02 03:49:25;;;;;;;38.00;21.77;;;3.00;99.90;;;;;;5068984;28;20403;-56
2022/03/02 03:51:50;;;;;;;45.25;25.33;;;3.00;99.90;;;;;;5055046;28;20049;-56
2022/03/02 03:54:16;;;;;;;40.13;22.45;;;3.00;99.90;;;;;;5048466;28;20063;-56
2022/03/02 03:56:42;;;;;;;41.22;22.48;;;2.90;99.90;;;;;;5048557;28;20067;-56
2022/03/02 03:59:08;;;;;;;38.28;21.95;;;2.80;99.90;;;;;;5064271;28;20052;-56
2022/03/02 04:01:34;;;;;;;44.72;22.77;;;3.10;99.90;;;;;;5066614;28;20055;-56
2022/03/02 04:03:59;;;;;;;46.40;22.50;;;2.70;99.90;;;;;;5068769;28;20470;-56
2022/03/02 04:06:25;;;;;;;37.92;23.15;;;2.70;99.90;;;;;;5066642;28;20127;-56
2022/03/02 04:08:51;;;;;;;41.83;23.73;;;2.70;99.90;;;;;;5068778;28;20040;-55
2022/03/02 04:11:16;;;;;;;38.08;20.85;;;2.60;99.90;;;;;;5067870;28;20048;-56
2022/03/02 04:13:42;;;;;;;43.53;23.38;;;2.50;99.90;;;;;;5049237;28;20045;-56
2022/03/02 04:16:08;;;;;;;38.95;21.88;;;2.50;99.90;;;;;;5052041;28;20047;-56
2022/03/02 04:18:33;;;;;;;42.10;23.60;;;2.40;99.90;;;;;;5068012;28;20055;-56
2022/03/02 04:21:00;;;;;;;39.80;22.52;;;2.40;99.90;;;;;;5067206;28;20126;-66
2022/03/02 04:23:26;;;;;;;45.88;23.48;;;2.40;99.90;;;;;;5068407;28;20173;-57
2022/03/02 04:25:52;;;;;;;37.58;22.88;;;2.30;99.90;;;;;;5066508;28;20063;-63
2022/03/02 04:28:18;;;;;;;33.67;20.25;;;2.30;99.90;;;;;;5068403;28;20055;-62
2022/03/02 04:30:44;;;;;;;48.58;23.67;;;2.20;99.90;;;;;;5066430;28;20479;-57
2022/03/02 04:33:10;;;;;;;39.90;20.90;;;2.20;99.90;;;;;;5068477;28;20446;-58
2022/03/02 04:35:36;;;;;;;41.00;22.08;;;2.20;99.90;;;;;;5067518;28;20056;-58
2022/03/02 04:38:03;;;;;;;42.15;22.88;;;2.20;99.90;;;;;;5068134;28;20041;-64
2022/03/02 04:40:29;;;;;;;39.50;23.15;;;2.20;99.90;;;;;;5067823;28;20063;-69
2022/03/02 04:42:55;;;;;;;43.47;22.05;;;2.10;99.90;;;;;;5067252;28;20067;-68
2022/03/02 04:45:25;;;;;;;41.40;22.35;;;2.10;99.90;;;;;;5067944;28;20482;-56
2022/03/02 04:47:52;;;;;;;38.45;21.63;;;2.10;99.90;;;;;;5067637;28;20434;-56
2022/03/02 04:50:19;;;;;;;37.90;22.33;;;1.60;99.90;;;;;;5066155;28;20052;-58
2022/03/02 04:52:45;;;;;;;38.17;22.98;;;2.00;99.90;;;;;;5050280;28;20380;-57
2022/03/02 04:55:12;;;;;;;38.20;21.83;;;2.00;99.90;;;;;;5046195;28;20084;-57
2022/03/02 04:57:44;;;;;;;36.55;20.10;;;1.90;99.90;;;;;;5051991;28;20048;-56
2022/03/02 05:00:23;;;;;;;38.60;22.10;;;1.90;99.90;;;;;;5066193;28;20056;-55
2022/03/02 05:02:49;;;;;;;38.20;21.70;;;1.90;99.90;;;;;;5051480;28;20037;-56
2022/03/02 05:05:17;;;;;;;43.10;23.50;;;1.80;99.90;;;;;;5064814;28;20104;-56
2022/03/02 05:07:43;;;;;;;39.78;22.67;;;1.80;99.90;;;;;;5066435;28;20048;-57
2022/03/02 05:10:10;;;;;;;43.10;23.80;;;1.80;99.90;;;;;;5066863;28;20090;-56
2022/03/02 05:12:36;;;;;;;39.60;21.85;;;1.50;99.90;;;;;;5057060;28;20125;-56
2022/03/02 05:15:04;;;;;;;39.05;22.00;;;1.80;99.90;;;;;;5046800;28;20499;-55
2022/03/02 05:17:30;;;;;;;41.92;22.40;;;1.80;99.90;;;;;;5047507;28;20076;-56
2022/03/02 05:19:56;;;;;;;43.42;22.48;;;1.80;99.90;;;;;;5065354;28;20086;-58
2022/03/02 05:22:22;;;;;;;39.25;22.27;;;1.70;99.90;;;;;;5065202;28;20123;-57
2022/03/02 05:24:47;;;;;;;41.65;22.00;;;1.70;99.90;;;;;;5067334;28;20392;-61
2022/03/02 05:27:13;;;;;;;46.67;23.67;;;1.70;99.90;;;;;;5066841;28;20091;-60
2022/03/02 05:29:39;;;;;;;41.28;22.75;;;1.70;99.90;;;;;;5066208;28;20090;-58
2022/03/02 05:32:05;;;;;;;42.95;22.85;;;1.60;99.90;;;;;;5066772;28;20044;-62
2022/03/02 05:34:31;;;;;;;43.15;21.70;;;1.60;99.90;;;;;;5067021;28;20045;-59
2022/03/02 05:37:00;;;;;;;36.50;20.77;;;1.60;99.90;;;;;;5067371;28;20059;-63
2022/03/02 05:39:26;;;;;;;36.95;21.50;;;1.50;99.90;;;;;;5066014;28;20663;-56
2022/03/02 05:41:52;;;;;;;43.35;22.65;;;1.50;99.90;;;;;;5065180;28;20494;-57
2022/03/02 05:44:18;;;;;;;36.25;21.77;;;1.50;99.90;;;;;;5065915;28;20102;-56
2022/03/02 05:46:44;;;;;;;39.72;22.73;;;1.50;99.90;;;;;;5065193;28;20383;-56
2022/03/02 05:49:10;;;;;;;38.67;22.27;;;1.50;99.90;;;;;;5056206;28;20560;-56
2022/03/02 05:51:37;;;;;;;41.97;21.65;;;1.40;99.90;;;;;;5047506;28;20049;-56
2022/03/02 05:54:04;;;;;;;40.00;22.17;;;1.40;99.90;;;;;;5066318;28;20399;-56
2022/03/02 05:56:33;;;;;;;41.55;23.48;;;1.40;99.90;;;;;;5064818;28;20052;-56
2022/03/02 05:58:59;;;;;;;37.50;21.02;;;1.40;99.90;;;;;;5066264;28;20052;-56
2022/03/02 06:01:25;;;;;;;43.30;22.38;;;1.40;99.90;;;;;;5066487;28;20139;-56
2022/03/02 06:03:51;;;;;;;42.47;22.00;;;1.30;99.90;;;;;;5053931;28;20063;-57
2022/03/02 06:06:17;;;;;;;40.42;22.35;;;1.30;99.90;;;;;;5063651;28;20499;-56
2022/03/02 06:08:44;;;;;;;39.42;21.92;;;1.30;99.90;;;;;;5054219;28;20052;-57
2022/03/02 06:11:09;;;;;;;41.83;22.83;;;1.20;99.90;;;;;;5060195;28;20048;-56
2022/03/02 06:13:36;;;;;;;40.85;21.10;;;1.20;99.90;;;;;;5064772;28;20040;-55
2022/03/02 06:16:02;;;;;;;42.75;21.67;;;1.20;99.90;;;;;;5062243;28;20596;-56
2022/03/02 06:18:29;;;;;;;39.92;21.60;;;1.20;99.90;;;;;;5061309;28;20049;-56
2022/03/02 06:21:00;;;;;;;38.95;21.98;;;1.20;99.90;;;;;;5064998;28;20048;-56
2022/03/02 06:23:30;;;;;;;41.08;22.63;;;1.20;99.90;;;;;;5064289;28;20506;-56
2022/03/02 06:25:56;;;;;;;41.22;23.85;;;1.20;99.90;;;;;;5064758;28;20049;-58
2022/03/02 06:28:26;;;;;;;40.60;23.55;;;1.20;99.90;;;;;;5065250;28;20068;-56
2022/03/02 06:30:52;;;;;;;39.28;23.17;;;1.20;99.90;;;;;;5063471;28;20043;-59
2022/03/02 06:33:19;;;;;;;44.00;22.48;;;1.20;99.90;;;;;;5062194;28;20053;-56
2022/03/02 06:35:49;;;;;;;41.47;24.30;;;1.70;99.90;;;;;;5051674;28;20372;-65
2022/03/02 06:38:15;;;;;;;44.33;25.33;;;1.20;99.90;;;;;;5046399;28;20049;-55
2022/03/02 06:40:51;;;;;;;42.38;23.95;;;1.20;99.90;;;;;;5060445;28;20033;-56
2022/03/02 06:43:20;;;;;;;40.08;22.63;;;1.20;99.90;;;;;;5050140;28;20119;-61
2022/03/02 06:45:59;;;;;;;38.63;21.83;;;1.30;99.90;;;;;;5063219;28;20477;-56
2022/03/02 06:48:32;;;;;;;49.00;24.73;;;1.30;99.90;;;;;;5057834;28;20045;-59
2022/03/02 06:51:00;;;;;;;50.38;23.20;;;1.30;99.90;;;;;;5047143;28;20080;-63
2022/03/02 06:53:32;;;;;;;41.00;23.80;;;1.40;99.90;;;;;;5062443;28;20036;-64
2022/03/02 06:56:00;;;;;;;46.05;26.05;;;1.40;99.90;;;;;;5068962;28;20495;-57
2022/03/02 06:58:31;;;;;;;46.25;23.73;;;1.50;99.90;;;;;;5069839;28;20064;-57
2022/03/02 07:00:57;;;;;;;49.30;24.10;;;1.70;99.90;;;;;;5069383;28;20135;-56
2022/03/02 07:03:28;;;;;;;43.50;23.83;;;1.60;99.90;;;;;;5068740;28;20044;-58
2022/03/02 07:05:54;;;;;;;53.67;25.42;;;1.60;99.90;;;;;;5068282;28;20114;-55
2022/03/02 07:08:24;;;;;;;44.38;23.77;;;1.80;99.90;;;;;;5067794;28;20488;-56
2022/03/02 07:10:51;;;;;;;43.53;25.73;;;1.80;99.90;;;;;;5050047;28;20175;-58
2022/03/02 07:13:17;;;;;;;43.80;24.23;;;1.90;99.90;;;;;;5047366;28;20049;-58
2022/03/02 07:15:43;;;;;;;40.80;22.98;;;2.00;99.90;;;;;;5049013;28;20083;-56
2022/03/02 07:18:09;;;;;;;41.65;24.02;;;2.10;99.90;;;;;;5047872;28;20091;-56
2022/03/02 07:20:41;;;;;;;43.53;24.85;;;2.20;99.90;;;;;;5049361;28;20048;-56
2022/03/02 07:23:13;;;;;;;42.60;24.02;;;2.20;99.90;;;;;;5049801;28;20122;-58
2022/03/02 07:25:42;;;;;;;51.03;24.85;;;2.30;99.90;;;;;;5048885;28;20098;-56
2022/03/02 07:28:10;;;;;;;43.17;23.25;;;2.40;99.90;;;;;;5055112;28;20095;-56
2022/03/02 07:30:37;;;;;;;41.85;23.65;;;2.50;99.90;;;;;;5066079;28;20055;-57
2022/03/02 07:33:04;;;;;;;43.83;23.48;;;2.50;99.90;;;;;;5055007;28;20049;-56
2022/03/02 07:35:34;;;;;;;44.35;24.40;;;2.60;99.90;;;;;;5047952;28;20411;-55
2022/03/02 07:38:00;;;;;;;38.78;22.88;;;2.60;99.90;;;;;;5060429;28;20584;-66
2022/03/02 07:40:26;;;;;;;43.33;23.90;;;3.10;99.90;;;;;;5068131;28;20235;-58
2022/03/02 07:42:52;;;;;;;41.47;24.48;;;2.70;99.90;;;;;;5068570;28;20056;-56
2022/03/02 07:45:19;;;;;;;38.28;21.58;;;2.80;99.90;;;;;;5060353;28;20052;-61
2022/03/02 07:47:46;;;;;;;39.47;22.73;;;2.90;99.90;;;;;;5058825;28;20113;-66
2022/03/02 07:50:13;;;;;;;41.90;23.90;;;3.60;99.90;;;;;;5055673;28;20436;-65
2022/03/02 07:52:45;;;;;;;43.42;23.98;;;3.10;99.90;;;;;;5057418;28;20053;-69
2022/03/02 07:55:11;;;;;;;38.10;22.15;;;3.20;99.90;;;;;;5063012;28;20048;-67
2022/03/02 07:57:41;;;;;;;41.88;23.25;;;3.30;99.90;;;;;;5059425;28;20303;-56
2022/03/02 08:00:09;;;;;;;39.42;22.75;;;3.40;99.90;;;;;;5058532;28;20141;-63
2022/03/02 08:02:35;;;;;;;41.15;22.33;;;3.50;99.90;;;;;;5068356;28;20510;-57
2022/03/02 08:05:02;;;;;;;39.85;23.23;;;3.50;99.90;;;;;;5068301;28;20400;-59
2022/03/02 08:07:28;;;;;;;43.38;22.38;;;3.60;99.90;;;;;;5067064;28;20049;-55
2022/03/02 08:09:53;;;;;;;42.08;22.52;;;3.70;99.90;;;;;;5068785;28;20067;-57
2022/03/02 08:12:20;;;;;;;47.83;24.23;;;3.80;99.90;;;;;;5057781;28;20485;-56
2022/03/02 08:14:48;;;;;;;44.22;23.95;;;3.90;99.90;;;;;;5051236;28;20120;-56
2022/03/02 08:17:13;;;;;;;41.60;24.08;;;3.90;99.90;;;;;;5061090;28;20547;-56
2022/03/02 08:19:39;;;;;;;44.67;26.00;;;4.10;99.90;;;;;;5060607;28;20131;-57
2022/03/02 08:22:16;;;;;;;38.78;21.73;;;4.20;99.90;;;;;;5058590;28;20110;-56
2022/03/02 08:24:46;;;;;;;42.15;23.88;;;4.30;99.90;;;;;;5066574;28;20101;-56
2022/03/02 08:27:13;;;;;;;45.38;23.50;;;4.30;99.90;;;;;;5053841;28;20522;-56
2022/03/02 08:29:40;;;;;;;43.42;24.30;;;4.40;99.90;;;;;;5067244;28;20486;-55
2022/03/02 08:32:07;;;;;;;44.58;23.38;;;4.60;99.90;;;;;;5060337;28;20048;-55
2022/03/02 08:34:34;;;;;;;40.63;21.83;;;4.70;99.90;;;;;;5041369;28;20450;-56
2022/03/02 08:37:01;;;;;;;42.22;23.40;;;4.80;99.90;;;;;;5063629;28;20078;-56
2022/03/02 08:39:27;;;;;;;36.50;21.25;;;5.00;99.90;;;;;;5067692;28;20044;-56
2022/03/02 08:41:54;;;;;;;38.55;21.38;;;5.10;99.90;;;;;;5058399;28;20064;-56
2022/03/02 08:44:20;;;;;;;43.05;22.92;;;5.20;99.90;;;;;;5056830;28;20086;-56
2022/03/02 08:46:47;;;;;;;43.42;22.17;;;5.90;99.90;;;;;;5064016;28;20048;-56
2022/03/02 08:49:15;;;;;;;36.00;22.30;;;6.10;99.90;;;;;;5062167;28;20052;-56
2022/03/02 08:51:42;;;;;;;41.03;22.25;;;5.60;99.90;;;;;;5054825;28;20503;-56
2022/03/02 08:54:11;;;;;;;37.00;20.73;;;5.70;99.90;;;;;;5059590;28;20056;-56
2022/03/02 08:56:38;;;;;;;39.60;21.75;;;5.80;99.90;;;;;;5050503;28;20135;-55
2022/03/02 08:59:05;;;;;;;35.42;20.88;;;6.00;99.90;;;;;;5061973;28;20523;-56
2022/03/02 09:01:32;;;;;;;38.97;21.58;;;6.10;99.90;;;;;;5065273;28;20486;-56
2022/03/02 09:03:59;;;;;;;40.88;22.85;;;6.20;99.90;;;;;;5064140;28;20151;-56
2022/03/02 09:06:29;;;;;;;42.25;22.80;;;6.30;99.90;;;;;;5058943;28;20468;-55
2022/03/02 09:08:55;;;;;;;38.45;20.05;;;6.50;99.90;;;;;;5057553;28;20483;-55
2022/03/02 09:11:21;;;;;;;35.17;20.50;;;6.60;99.90;;;;;;5052376;28;20107;-56
2022/03/02 09:13:49;;;;;;;40.53;20.92;;;6.60;99.90;;;;;;5058197;28;20063;-56
2022/03/02 09:16:15;;;;;;;36.17;21.40;;;6.70;99.90;;;;;;5061323;28;20434;-56
2022/03/02 09:18:42;;;;;;;35.53;20.88;;;6.90;99.90;;;;;;5064199;28;20121;-56
2022/03/02 09:21:09;;;;;;;35.90;20.55;;;7.10;99.90;;;;;;5062772;28;20041;-55
2022/03/02 09:23:43;;;;;;;36.72;20.27;;;7.40;99.90;;;;;;5053022;28;20083;-55
2022/03/02 09:26:14;;;;;;;39.15;21.52;;;7.70;99.90;;;;;;5062440;28;20190;-55
2022/03/02 09:28:46;;;;;;;31.17;17.45;;;8.00;99.90;;;;;;5064585;28;20616;-55
2022/03/02 09:31:15;;;;;;;31.85;18.40;;;8.30;99.90;;;;;;5052989;28;20080;-56
2022/03/02 09:33:46;;;;;;;33.83;18.95;;;8.70;99.90;;;;;;5055050;28;20526;-55
2022/03/02 09:36:12;;;;;;;30.20;18.98;;;9.10;99.90;;;;;;5057980;28;20109;-56
2022/03/02 09:38:39;;;;;;;33.90;19.77;;;9.40;99.90;;;;;;5063545;28;20052;-56
2022/03/02 09:41:17;;;;;;;30.40;18.63;;;9.60;99.90;;;;;;5066084;28;20047;-57
2022/03/02 09:43:47;;;;;;;33.22;19.45;;;10.00;99.90;;;;;;5064948;28;20048;-56
2022/03/02 09:46:18;;;;;;;29.65;19.98;;;10.50;99.90;;;;;;5053752;28;20124;-58
2022/03/02 09:48:50;;;;;;;31.63;18.92;;;10.60;99.90;;;;;;5062714;28;20195;-56
2022/03/02 09:51:23;;;;;;;33.17;18.83;;;11.00;99.90;;;;;;5050937;28;20044;-56
2022/03/02 09:53:52;;;;;;;30.67;18.38;;;11.20;99.90;;;;;;5065771;28;20494;-56
2022/03/02 09:56:20;;;;;;;28.95;19.58;;;11.50;99.90;;;;;;5064818;28;20053;-56
2022/03/02 09:58:50;;;;;;;32.65;20.30;;;11.90;99.90;;;;;;5065744;28;20052;-56
2022/03/02 10:01:24;;;;;;;29.50;18.33;;;12.20;99.90;;;;;;5065800;28;20084;-57
2022/03/02 10:03:52;;;;;;;30.05;17.88;;;12.40;99.90;;;;;;5065718;28;20037;-62
2022/03/02 10:06:19;;;;;;;28.13;17.80;;;12.70;99.90;;;;;;5065561;28;20546;-62
2022/03/02 10:08:53;;;;;;;30.27;17.95;;;12.80;99.90;;;;;;5064081;28;20048;-63
2022/03/02 10:11:21;;;;;;;27.40;17.38;;;13.10;99.90;;;;;;5066318;28;20070;-64
2022/03/02 10:13:47;;;;;;;30.23;17.65;;;13.10;99.90;;;;;;5064543;28;20506;-64
2022/03/02 10:16:25;;;;;;;30.23;17.65;;;13.40;99.90;;;;;;5056278;28;20052;-62
2022/03/02 10:19:02;;;;;;;28.42;18.05;;;13.20;99.90;;;;;;5061341;28;20521;-64
2022/03/02 10:21:40;;;;;;;25.27;18.00;;;13.50;99.90;;;;;;5066031;28;20060;-61
2022/03/02 10:24:10;;;;;;;33.67;18.15;;;13.50;99.90;;;;;;5064240;28;20060;-60
2022/03/02 10:26:46;;;;;;;27.15;18.65;;;13.90;99.90;;;;;;5065460;28;20048;-60
2022/03/02 10:29:33;;;;;;;23.90;16.48;;;13.90;99.90;;;;;;5061011;28;20441;-61
2022/03/02 10:32:16;;;;;;;23.83;16.27;;;14.20;99.90;;;;;;5069804;28;20044;-62
2022/03/02 10:34:51;;;;;;;23.75;16.80;;;14.40;99.90;;;;;;5058281;28;20473;-61
2022/03/02 10:37:20;;;;;;;28.30;17.65;;;14.30;99.90;;;;;;5060246;28;20044;-58
2022/03/02 10:39:49;;;;;;;23.50;16.38;;;14.30;99.90;;;;;;5056188;28;20174;-64
2022/03/02 10:42:42;;;;;;;26.63;19.30;;;14.30;99.90;;;;;;5069051;28;20797;-61
2022/03/02 10:45:26;;;;;;;24.30;17.17;;;14.50;99.90;;;;;;5051516;28;20067;-56
2022/03/02 10:48:08;;;;;;;24.65;16.65;;;14.60;99.90;;;;;;5062471;28;20044;-56
2022/03/02 10:50:36;;;;;;;27.25;17.73;;;14.70;99.90;;;;;;5068933;28;20056;-56
2022/03/02 10:53:13;;;;;;;27.23;17.08;;;14.90;99.90;;;;;;5066706;28;20121;-56
2022/03/02 10:55:42;;;;;;;23.75;14.68;;;15.10;99.90;;;;;;5060177;28;20637;-56
2022/03/02 10:58:18;;;;;;;21.63;16.00;;;15.20;99.90;;;;;;5064933;28;20054;-56
2022/03/02 11:00:46;;;;;;;21.90;14.85;;;15.30;99.90;;;;;;5058852;28;20047;-56
2022/03/02 11:03:14;;;;;;;22.75;16.00;;;15.50;99.90;;;;;;5062369;28;20669;-56
2022/03/02 11:05:40;;;;;;;27.00;16.60;;;15.40;99.90;;;;;;5068184;28;20050;-57
2022/03/02 11:08:06;;;;;;;24.33;16.08;;;15.30;99.90;;;;;;5067628;28;20122;-56
2022/03/02 11:10:33;;;;;;;22.95;15.70;;;15.30;99.90;;;;;;5055353;28;20052;-56
2022/03/02 11:13:13;;;;;;;24.50;17.10;;;15.30;99.90;;;;;;5060674;28;20052;-56
2022/03/02 11:15:48;;;;;;;21.45;15.43;;;15.30;99.90;;;;;;5065948;28;20508;-58
2022/03/02 11:18:16;;;;;;;21.83;16.15;;;15.30;99.90;;;;;;5065079;28;20176;-56
2022/03/02 11:20:59;;;;;;;23.75;16.17;;;15.60;99.90;;;;;;5065906;28;20052;-58
2022/03/02 11:23:26;;;;;;;24.23;16.25;;;15.20;99.90;;;;;;5060166;28;20062;-57
2022/03/02 11:25:56;;;;;;;20.15;14.90;;;15.10;99.90;;;;;;5062712;28;20106;-57
2022/03/02 11:28:24;;;;;;;20.42;14.50;;;15.10;99.90;;;;;;5065102;28;20072;-56
2022/03/02 11:30:57;;;;;;;20.75;15.02;;;15.40;99.90;;;;;;5066358;28;20052;-56
2022/03/02 11:33:27;;;;;;;18.83;13.47;;;15.50;99.90;;;;;;5059055;28;20051;-57
2022/03/02 11:35:59;;;;;;;21.13;15.05;;;15.90;99.90;;;;;;5065196;28;20094;-57
2022/03/02 11:38:31;;;;;;;25.02;16.70;;;16.00;99.90;;;;;;5065051;28;20124;-57
2022/03/02 11:40:57;;;;;;;24.50;15.73;;;17.90;99.90;;;;;;5065954;28;20037;-57
2022/03/02 11:43:28;;;;;;;21.05;13.88;;;19.80;99.90;;;;;;5065838;28;21378;-56
2022/03/02 11:46:01;;;;;;;21.25;15.65;;;21.30;97.90;;;;;;5065574;28;20119;-57
2022/03/02 11:48:30;;;;;;;20.60;14.63;;;22.70;95.10;;;;;;5065498;28;20040;-56
2022/03/02 11:51:12;;;;;;;18.92;12.85;;;23.60;93.30;;;;;;5064000;28;20439;-57
2022/03/02 11:53:50;;;;;;;19.42;13.60;;;24.50;90.70;;;;;;5063500;28;20061;-57
2022/03/02 11:56:18;;;;;;;20.75;13.10;;;25.00;88.20;;;;;;5061006;28;20060;-56
2022/03/02 11:58:58;;;;;;;19.08;13.15;;;25.30;89.50;;;;;;5061473;28;20491;-56
2022/03/02 12:01:25;;;;;;;19.92;14.15;;;26.40;83.50;;;;;;5060859;28;20063;-57
2022/03/02 12:04:06;;;;;;;20.20;13.32;;;27.00;83.80;;;;;;5059157;28;20063;-56
2022/03/02 12:06:39;;;;;;;20.42;13.88;;;27.10;80.30;;;;;;5053971;28;20064;-57
2022/03/02 12:09:05;;;;;;;22.02;15.02;;;27.50;78.50;;;;;;5064063;28;20163;-57
2022/03/02 12:11:38;;;;;;;18.25;13.48;;;27.70;79.30;;;;;;5060008;28;20418;-56
2022/03/02 12:14:09;;;;;;;17.63;13.27;;;27.80;76.50;;;;;;5052705;28;20044;-58
2022/03/02 12:16:43;;;;;;;19.95;13.77;;;27.90;74.80;;;;;;5047869;28;20064;-56
2022/03/02 12:19:26;;;;;;;21.33;13.68;;;27.40;73.50;;;;;;5044709;28;20048;-57
2022/03/02 12:22:00;;;;;;;17.98;13.55;;;27.50;72.40;;;;;;5043883;28;20048;-58
2022/03/02 12:24:32;;;;;;;19.17;13.13;;;26.30;72.90;;;;;;5049793;28;20053;-57
2022/03/02 12:27:05;;;;;;;18.35;13.65;;;24.40;72.40;;;;;;5053068;28;20048;-57
2022/03/02 12:29:33;;;;;;;18.35;13.43;;;22.60;75.80;;;;;;5047748;28;20044;-57
2022/03/02 12:32:06;;;;;;;21.15;13.20;;;21.40;79.60;;;;;;5056975;28;20418;-58
2022/03/02 12:34:41;;;;;;;19.07;12.80;;;20.60;78.50;;;;;;5049426;28;20045;-57
2022/03/02 12:37:07;;;;;;;23.00;14.05;;;19.50;82.30;;;;;;5055269;28;20625;-56
2022/03/02 12:39:34;;;;;;;20.80;13.30;;;19.00;84.00;;;;;;5063634;28;20059;-56